Albany Molecular Research (AMRI) Latest Bloomsberg Price


Mffais Ranking #393 Overall / #9 Industry
Industry: Specialty Pharma

Number of Companies: 99 (Ranking #1653 Overall/#22 Industry)
Inflow: $ 32,891 (K) (Ranking #1518 Overall/#22 Industry)
Outflow: $ -15,777 (K)
Mffais Flow: $ 17,113 (K) (Ranking #393 Overall/#9 Industry)


Owner CPOR Shares Action Qty Chg Invested (K) Total Current Value (K)
American Capital Management Inc 2016-09-30 1,372,510 New Holding 1,372,510 $ 18,940 $ 18,940
Permian Investment Partners Lp 2016-09-30 3,060,800 Added More 240,505 $ 3,318 $ 42,239
Vaughan Nelson Investment Management L P 2016-09-30 1,940,375 Added More 160,450 $ 2,214 $ 26,777
Cove Street Capital Llc 2016-09-30 120,000 New Holding 120,000 $ 1,656 $ 1,656
Walthausen Co Llc 2016-09-30 109,280 New Holding 109,280 $ 1,508 $ 1,508
Royce Associates Lp 2016-09-30 1,254,296 Added More 70,327 $ 970 $ 17,309
Icon Advisers Inc Co 2016-09-30 52,000 New Holding 52,000 $ 717 $ 717
Netols Asset Management Inc 2016-09-30 421,105 Added More 49,682 $ 685 $ 5,811
Mutual Of America Capital Management Llc 2016-09-30 128,576 Added More 28,345 $ 391 $ 1,774
Panagora Asset Management Inc 2016-09-30 23,736 Added More 17,615 $ 243 $ 327
Skandinaviska Enskilda Banken Ab Publ 2016-09-30 309,300 Added More 16,200 $ 223 $ 4,268
Ngam Advisors L P 2016-09-30 186,993 Added More 15,696 $ 216 $ 2,580
Legal General Group Plc 2016-09-30 19,324 Added More 15,100 $ 208 $ 266
Moody Aldrich Partners Llc 2016-09-30 139,777 Added More 14,520 $ 200 $ 1,928
Obermeyer Wood Investment Counsel Lllp 2016-09-30 1,801,773 Added More 13,730 $ 189 $ 24,864
Sii Investments Inc Wi 2016-09-30 11,210 New Holding 11,210 $ 154 $ 154
Zacks Investment Management 2016-09-30 10,317 New Holding 10,317 $ 142 $ 142
Perceptive Advisors Llc 2016-09-30 10,300 New Holding 10,300 $ 142 $ 142
Cutler Group Lp 2016-09-30 19,400 Added More 9,300 $ 128 $ 267
Us Bancorp De 2016-09-30 13,240 Added More 8,590 $ 118 $ 182
Springbok Capital Management Llc 2016-09-30 8,296 New Holding 8,296 $ 114 $ 114
Css Llc Il 2016-09-30 18,200 Added More 7,300 $ 100 $ 251
Ranger Investment Management L P 2016-09-30 81,650 Added More 6,250 $ 86 $ 1,126
Parametric Portfolio Associates Llc 2016-09-30 23,063 Added More 3,980 $ 54 $ 318
Aperio Group Llc 2016-09-30 15,590 Added More 2,376 $ 32 $ 215
Acrospire Investment Management Llc 2016-09-30 3,368 Added More 2,300 $ 31 $ 46
Tudor Investment Corp Et Al 2016-09-30 14,744 Added More 2,244 $ 30 $ 203
Bessemer Group Inc 2016-09-30 92,814 Added More 1,704 $ 23 $ 1,280
Fifth Third Bancorp 2016-09-30 1,000 New Holding 1,000 $ 13 $ 13
Nn Investment Partners Holdings N V 2016-09-30 49,665 Added More 520 $ 7 $ 685
California State Teachers Retirement System 2016-09-30 54,996 Added More 500 $ 6 $ 758
Bronfman E L Rothschild L P 2016-09-30 4,048 Added More 463 $ 6 $ 55
Next Financial Group Inc 2016-09-30 400 Added More 300 $ 4 $ 5
Rhumbline Advisers 2016-09-30 37,114 Added More 250 $ 3 $ 512
Advisor Group Inc 2016-09-30 1,238 Added More 145 $ 2 $ 17
Eqis Capital Management Inc 2016-09-30 19,535 Added More 102 $ 1 $ 269
Qs Investors Llc 2016-09-30 28 Added More 8 $ 0 $ 0
Dekabank Deutsche Girozentrale 2016-09-30 21,500 No Change 0 $ 0 $ 296
Bank Of Nova Scotia 2016-09-30 33,670 No Change 0 $ 0 $ 464
New York State Teachers Retirement System 2016-09-30 22,193 No Change 0 $ 0 $ 306
Sei Investments Co 2016-09-30 44 No Change 0 $ 0 $ 0
Teachers Retirement System Of The State Of Kentucky 2016-09-30 6,300 No Change 0 $ 0 $ 86
New York State Common Retirement Fund 2016-09-30 24,400 No Change 0 $ 0 $ 336
Mesirow Financial Investment Management - Equity Management 2016-09-30 22,380 No Change 0 $ 0 $ 308
Teachers Advisors Inc 2016-09-30 41,718 No Change 0 $ 0 $ 575
Keybank National Association Oh 2016-09-30 33,263 No Change 0 $ 0 $ 459
Nationwide Fund Advisors 2016-09-30 16,450 No Change 0 $ 0 $ 227
First Interstate Bank 2016-09-30 1,114 No Change 0 $ 0 $ 15
Woodmont Investment Counsel Llc 2016-09-30 4,773 No Change 0 $ 0 $ 65
Blackrock Inc 2016-09-30 4,060 No Change 0 $ 0 $ 56
Zurcher Kantonalbank Zurich Cantonalbank 2016-09-30 593 No Change 0 $ 0 $ 8
Ifp Advisors Inc 2016-09-30 60 No Change 0 $ 0 $ 0
Financial Architects Inc 2016-09-30 710 No Change 0 $ 0 $ 9
Capital Impact Advisors Llc 2016-09-30 49,644 No Change 0 $ 0 $ 685
Ancora Advisors Llc 2016-09-30 114,300 No Change 0 $ 0 $ 1,577
Ls Investment Advisors Llc 2016-09-30 1,029 No Change 0 $ 0 $ 14
Pdt Partners Llc 2016-09-30 35,400 No Change 0 $ 0 $ 488
Swiss National Bank 2016-09-30 43,300 No Change 0 $ 0 $ 597
Horizon Kinetics Llc 2016-09-30 56,000 No Change 0 $ 0 $ 772
Quadrant Capital Group Llc 2016-09-30 0 Sold All -51 $ -0 $ 0
Pnc Financial Services Group Inc 2016-09-30 0 Sold All -84 $ -1 $ 0
Capstone Asset Management Co 2016-09-30 16,780 Sold Some -170 $ -2 $ 231
Proshare Advisors Llc 2016-09-30 30,049 Sold Some -317 $ -4 $ 414
Pinebridge Investments L P 2016-09-30 2,834 Sold Some -337 $ -4 $ 39
Northern Trust Corp 2016-09-30 349,026 Sold Some -616 $ -8 $ 4,816
Simplex Trading Llc 2016-09-30 0 Sold All -622 $ -8 $ 0
Tower Research Capital Llc Trc 2016-09-30 0 Sold All -677 $ -9 $ 0
Mason Street Advisors Llc 2016-09-30 4,589 Sold Some -716 $ -9 $ 63
American International Group Inc 2016-09-30 18,708 Sold Some -825 $ -11 $ 258
Bokf Na 2016-09-30 59,734 Sold Some -1,325 $ -18 $ 824
Blackrock Investment Management Llc 2016-09-30 116,110 Sold Some -2,228 $ -30 $ 1,602
Arizona State Retirement System 2016-09-30 11,486 Sold Some -2,600 $ -35 $ 158
Public Sector Pension Investment Board 2016-09-30 15,628 Sold Some -3,000 $ -41 $ 215
Comerica Bank 2016-09-30 23,591 Sold Some -3,586 $ -49 $ 325
State Of Tennessee Treasury Department 2016-09-30 17,897 Sold Some -3,610 $ -49 $ 246
Teacher Retirement System Of Texas 2016-09-30 0 Sold All -3,720 $ -51 $ 0
Texas Permanent School Fund 2016-09-30 16,982 Sold Some -3,766 $ -51 $ 234
Philadelphia Trust Co 2016-09-30 178,275 Sold Some -3,975 $ -54 $ 2,460
Strs Ohio 2016-09-30 42,600 Sold Some -4,800 $ -66 $ 587
Palisade Capital Management Llc Nj 2016-09-30 668,397 Sold Some -5,232 $ -72 $ 9,223
Rice Hall James Associates Llc 2016-09-30 1,289,621 Sold Some -7,591 $ -104 $ 17,796
Dynamic Technology Lab Private Ltd 2016-09-30 0 Sold All -10,758 $ -148 $ 0
Clough Capital Partners L P 2016-09-30 491,060 Sold Some -11,000 $ -151 $ 6,776
Guggenheim Capital Llc 2016-09-30 86,850 Sold Some -11,229 $ -154 $ 1,198
First Quadrant L P Ca 2016-09-30 23,600 Sold Some -16,100 $ -222 $ 325
Emerald Acquisition Ltd 2016-09-30 217,126 Sold Some -20,328 $ -280 $ 2,996
Jane Street Group Llc 2016-09-30 0 Sold All -23,055 $ -318 $ 0
Ami Asset Management Corp 2016-09-30 853,004 Sold Some -23,439 $ -323 $ 11,771
Dimensional Fund Advisors Lp 2016-09-30 1,632,539 Sold Some -40,314 $ -556 $ 22,529
Walleye Trading Llc 2016-09-30 13,400 Sold Some -43,100 $ -594 $ 184
Shinko Asset Management Co Ltd 2016-09-30 157,794 Sold Some -45,656 $ -630 $ 2,177
Fisher Asset Management Llc 2016-09-30 157,794 Sold Some -45,656 $ -630 $ 2,177
Kennedy Capital Management Inc 2016-09-30 0 Sold All -46,248 $ -638 $ 0
Gsa Capital Partners Llp 2016-09-30 13,899 Sold Some -56,228 $ -775 $ 191
Thrivent Financial For Lutherans 2016-09-30 11,440 Sold Some -62,480 $ -862 $ 157
Highbridge Capital Management Llc 2016-09-30 0 Sold All -69,725 $ -962 $ 0
Franklin Street Advisors Inc Nc 2016-09-30 0 Sold All -84,750 $ -1,169 $ 0
Putnam Investments Llc 2016-09-30 147,760 Sold Some -130,999 $ -1,807 $ 2,039
Healthcare Value Capital Llc 2016-09-30 0 Sold All -352,400 $ -4,863 $ 0